createdAt,value
2023-03-12T00:00:09.066Z,14.77
2023-03-12T00:02:36.521Z,19.35
2023-03-12T00:05:04.159Z,12.82
2023-03-12T00:07:31.493Z,14.93
2023-03-12T00:09:58.738Z,15.38
2023-03-12T00:12:25.940Z,12.95
2023-03-12T00:14:53.247Z,13.00
2023-03-12T00:17:20.498Z,11.73
2023-03-12T00:19:51.751Z,11.73
2023-03-12T00:22:22.992Z,12.57
2023-03-12T00:24:53.796Z,11.43
2023-03-12T00:27:21.101Z,10.60
2023-03-12T00:29:49.025Z,11.73
2023-03-12T00:32:16.397Z,15.82
2023-03-12T00:34:43.703Z,10.02
2023-03-12T00:37:11.012Z,14.27
2023-03-12T00:39:38.189Z,11.43
2023-03-12T00:42:05.555Z,12.75
2023-03-12T00:44:32.852Z,9.85
2023-03-12T00:47:00.199Z,11.25
2023-03-12T00:49:27.577Z,11.30
2023-03-12T00:51:54.878Z,10.80
2023-03-12T00:54:22.235Z,9.90
2023-03-12T00:56:49.761Z,10.00
2023-03-12T00:59:17.216Z,12.27
2023-03-12T01:01:44.815Z,9.93
2023-03-12T01:04:12.363Z,9.68
2023-03-12T01:06:39.797Z,9.73
2023-03-12T01:09:08.105Z,10.23
2023-03-12T01:11:36.066Z,12.07
2023-03-12T01:14:04.006Z,12.80
2023-03-12T01:16:31.508Z,11.73
2023-03-12T01:18:59.030Z,14.10
2023-03-12T01:21:26.440Z,14.27
2023-03-12T01:23:53.728Z,15.77
2023-03-12T01:26:21.155Z,12.75
2023-03-12T01:28:48.522Z,13.82
2023-03-12T01:31:17.665Z,14.73
2023-03-12T01:33:45.230Z,16.92
2023-03-12T01:36:30.941Z,13.38
2023-03-12T01:38:59.759Z,13.52
2023-03-12T01:41:28.162Z,12.57
2023-03-12T01:43:55.544Z,14.07
2023-03-12T01:46:28.890Z,13.63
2023-03-12T01:48:58.549Z,10.10
2023-03-12T01:51:31.240Z,11.95
2023-03-12T01:54:00.404Z,13.90
2023-03-12T01:56:29.056Z,11.60
2023-03-12T01:58:57.978Z,13.10
2023-03-12T02:01:25.753Z,9.73
2023-03-12T02:03:54.422Z,9.52
2023-03-12T02:06:43.815Z,13.15
2023-03-12T02:09:12.691Z,14.10
2023-03-12T02:11:39.970Z,14.70
2023-03-12T02:14:07.425Z,12.02
2023-03-12T02:16:34.680Z,17.92
2023-03-12T02:19:02.447Z,14.93
2023-03-12T02:21:33.774Z,11.43
2023-03-12T02:24:07.867Z,18.35
2023-03-12T02:26:36.285Z,14.57
2023-03-12T02:29:04.103Z,11.98
2023-03-12T02:31:34.417Z,11.40
2023-03-12T02:34:01.823Z,15.30
2023-03-12T02:36:29.244Z,11.77
2023-03-12T02:38:57.150Z,13.82
2023-03-12T02:41:24.400Z,17.88
2023-03-12T02:43:57.695Z,13.45
2023-03-12T02:46:25.100Z,16.10
2023-03-12T02:48:53.444Z,18.95
2023-03-12T02:51:20.793Z,15.98
2023-03-12T02:53:50.184Z,14.10
2023-03-12T02:56:17.449Z,15.75
2023-03-12T02:58:45.103Z,18.08
2023-03-12T03:01:12.600Z,17.30
2023-03-12T03:03:39.922Z,14.25
2023-03-12T03:06:07.164Z,15.55
2023-03-12T03:08:34.481Z,18.08
2023-03-12T03:11:03.158Z,15.98
2023-03-12T03:13:30.928Z,17.70
2023-03-12T03:16:04.470Z,16.15
2023-03-12T03:18:32.101Z,15.32
2023-03-12T03:21:04.856Z,13.40
2023-03-12T03:23:32.580Z,20.25
2023-03-12T03:25:59.909Z,16.70
2023-03-12T03:28:28.655Z,16.92
2023-03-12T03:31:01.874Z,18.50
2023-03-12T03:33:30.028Z,18.00
2023-03-12T03:35:59.635Z,18.25
2023-03-12T03:38:29.017Z,19.40
2023-03-12T03:40:56.442Z,21.95
2023-03-12T03:43:23.640Z,17.80
2023-03-12T03:46:05.493Z,20.95
2023-03-12T03:48:33.170Z,16.42
2023-03-12T03:51:01.917Z,13.80
2023-03-12T03:53:29.369Z,12.60
2023-03-12T03:55:56.573Z,11.35
2023-03-12T03:58:23.866Z,14.50
2023-03-12T04:00:51.343Z,13.38
2023-03-12T04:03:18.699Z,15.85
2023-03-12T04:05:46.029Z,9.85
2023-03-12T04:08:14.071Z,14.15
2023-03-12T04:10:41.848Z,15.10
2023-03-12T04:13:09.121Z,16.48
2023-03-12T04:15:36.310Z,15.13
2023-03-12T04:18:03.625Z,14.45
2023-03-12T04:20:30.969Z,15.68
2023-03-12T04:22:58.567Z,16.27
2023-03-12T04:25:25.799Z,21.38
2023-03-12T04:27:53.014Z,15.73
2023-03-12T04:30:20.210Z,22.42
2023-03-12T04:32:47.614Z,13.68
2023-03-12T04:35:14.874Z,16.27
2023-03-12T04:37:42.090Z,16.83
2023-03-12T04:40:09.954Z,15.25
2023-03-12T04:42:37.372Z,15.35
2023-03-12T04:45:06.240Z,13.90
2023-03-12T04:47:34.250Z,18.67
2023-03-12T04:50:01.669Z,18.35
2023-03-12T04:52:29.214Z,18.02
2023-03-12T04:54:56.439Z,17.15
2023-03-12T04:57:23.682Z,18.00
2023-03-12T04:59:51.192Z,18.10
2023-03-12T05:02:18.497Z,15.77
2023-03-12T05:04:45.751Z,18.45
2023-03-12T05:07:12.975Z,16.25
2023-03-12T05:09:40.249Z,16.33
2023-03-12T05:12:07.616Z,14.20
2023-03-12T05:14:34.847Z,19.23
2023-03-12T05:17:02.088Z,14.50
2023-03-12T05:19:29.252Z,14.10
2023-03-12T05:21:56.473Z,15.65
2023-03-12T05:24:23.679Z,13.52
2023-03-12T05:26:51.029Z,13.50
2023-03-12T05:29:18.242Z,16.92
2023-03-12T05:31:45.500Z,14.13
2023-03-12T05:34:13.678Z,14.93
2023-03-12T05:36:41.076Z,15.73
2023-03-12T05:39:08.222Z,18.60
2023-03-12T05:41:35.462Z,13.95
2023-03-12T05:44:02.664Z,17.20
2023-03-12T05:46:30.025Z,15.35
2023-03-12T05:48:57.377Z,15.57
2023-03-12T05:51:24.517Z,18.30
2023-03-12T05:53:51.760Z,14.85
2023-03-12T05:56:19.365Z,16.00
2023-03-12T05:58:49.294Z,20.13
2023-03-12T06:01:21.770Z,18.58
2023-03-12T06:03:49.090Z,14.73
2023-03-12T06:06:16.346Z,16.00
2023-03-12T06:08:43.981Z,16.83
2023-03-12T06:11:11.512Z,19.35
2023-03-12T06:13:38.767Z,14.80
2023-03-12T06:16:08.075Z,17.77
2023-03-12T06:18:35.939Z,17.55
2023-03-12T06:21:10.554Z,18.42
2023-03-12T06:23:37.861Z,16.23
2023-03-12T06:26:05.153Z,15.02
2023-03-12T06:28:32.354Z,14.52
2023-03-12T06:30:59.585Z,16.42
2023-03-12T06:33:26.881Z,12.15
2023-03-12T06:35:55.493Z,17.42
2023-03-12T06:38:23.116Z,15.82
2023-03-12T06:40:57.816Z,12.13
2023-03-12T06:43:25.972Z,12.02
2023-03-12T06:45:53.254Z,18.85
2023-03-12T06:48:20.473Z,14.32
2023-03-12T06:50:47.715Z,17.10
2023-03-12T06:53:14.888Z,16.58
2023-03-12T06:55:42.098Z,13.65
2023-03-12T06:58:09.340Z,16.35
2023-03-12T07:00:36.909Z,15.75
2023-03-12T07:03:04.272Z,16.98
2023-03-12T07:05:31.467Z,14.38
2023-03-12T07:07:58.735Z,8.75
2023-03-12T07:10:28.149Z,9.45
2023-03-12T07:12:55.690Z,11.15
2023-03-12T07:15:22.987Z,9.40
2023-03-12T07:17:50.304Z,13.02
2023-03-12T07:20:17.662Z,19.83
2023-03-12T07:22:45.034Z,16.83
2023-03-12T07:25:12.350Z,12.43
2023-03-12T07:27:39.654Z,88.65
2023-03-12T07:30:07.293Z,33.60
2023-03-12T07:32:36.843Z,16.20
2023-03-12T07:35:05.060Z,15.77
2023-03-12T07:37:32.321Z,9.90
2023-03-12T07:39:59.746Z,10.30
2023-03-12T07:42:27.100Z,10.48
2023-03-12T07:44:54.371Z,10.55
2023-03-12T07:47:24.463Z,7.47
2023-03-12T07:49:52.213Z,6.13
2023-03-12T07:52:20.279Z,4.07
2023-03-12T07:54:47.967Z,5.05
2023-03-12T07:57:15.434Z,6.72
2023-03-12T07:59:42.826Z,6.95
2023-03-12T08:02:11.037Z,6.70
2023-03-12T08:04:38.498Z,10.18
2023-03-12T08:07:08.732Z,5.45
2023-03-12T08:09:38.759Z,6.22
2023-03-12T08:12:07.585Z,5.05
2023-03-12T08:14:35.111Z,5.88
2023-03-12T08:17:04.097Z,9.32
2023-03-12T08:19:31.559Z,5.82
2023-03-12T08:21:59.301Z,4.97
2023-03-12T08:24:26.849Z,6.60
2023-03-12T08:26:54.529Z,4.03
2023-03-12T08:29:21.942Z,5.82
2023-03-12T08:32:03.808Z,7.57
2023-03-12T08:34:33.088Z,4.75
2023-03-12T08:37:02.285Z,8.60
2023-03-12T08:39:33.102Z,4.97
2023-03-12T08:42:02.840Z,4.72
2023-03-12T08:44:33.254Z,6.55
2023-03-12T08:47:01.291Z,6.32
2023-03-12T08:49:29.259Z,4.95
2023-03-12T08:51:58.165Z,8.15
2023-03-12T08:54:25.809Z,4.45
2023-03-12T08:56:53.718Z,5.47
2023-03-12T08:59:22.537Z,6.70
2023-03-12T09:01:50.362Z,6.22
2023-03-12T09:04:18.521Z,4.13
2023-03-12T09:06:49.412Z,7.53
2023-03-12T09:09:16.921Z,5.90
2023-03-12T09:11:46.793Z,6.22
2023-03-12T09:17:02.458Z,6.10
2023-03-12T09:19:30.158Z,4.88
2023-03-12T09:21:58.041Z,4.70
2023-03-12T09:24:25.505Z,5.43
2023-03-12T09:26:52.918Z,4.95
2023-03-12T09:29:23.516Z,8.43
2023-03-12T09:31:51.415Z,8.63
2023-03-12T09:34:18.888Z,7.20
2023-03-12T09:36:46.262Z,5.50
2023-03-12T09:39:18.646Z,6.00
2023-03-12T09:41:47.939Z,4.88
2023-03-12T09:44:16.872Z,5.30
2023-03-12T09:46:48.022Z,5.30
2023-03-12T09:49:18.695Z,6.00
2023-03-12T09:51:49.449Z,8.00
2023-03-12T09:54:24.054Z,7.30
2023-03-12T09:56:53.412Z,9.65
2023-03-12T09:59:20.830Z,6.47
2023-03-12T10:01:53.375Z,6.78
2023-03-12T10:04:48.674Z,10.27
2023-03-12T10:07:38.806Z,7.32
2023-03-12T10:10:07.559Z,9.10
2023-03-12T10:12:35.076Z,10.07
2023-03-12T10:15:08.626Z,9.63
2023-03-12T10:17:51.154Z,8.40
2023-03-12T10:20:24.589Z,6.20
2023-03-12T10:23:10.532Z,8.65
2023-03-12T10:25:43.976Z,9.20
2023-03-12T10:28:17.599Z,10.43
2023-03-12T10:30:48.749Z,11.48
2023-03-12T10:33:18.640Z,11.02
2023-03-12T10:35:46.261Z,7.38
2023-03-12T10:38:23.402Z,10.88
2023-03-12T10:40:50.837Z,10.82
2023-03-12T10:43:18.106Z,8.52
2023-03-12T10:45:58.232Z,11.02
2023-03-12T10:48:26.481Z,9.52
2023-03-12T10:51:08.099Z,8.52
2023-03-12T10:53:44.856Z,6.95
2023-03-12T10:56:13.643Z,9.07
2023-03-12T10:58:41.121Z,12.52
2023-03-12T11:01:28.687Z,10.23
2023-03-12T11:04:09.918Z,10.60
2023-03-12T11:06:37.271Z,10.10
2023-03-12T11:09:17.196Z,14.02
2023-03-12T11:11:47.492Z,14.15
2023-03-12T11:14:22.499Z,16.75
2023-03-12T11:16:50.418Z,14.88
2023-03-12T11:19:34.285Z,19.05
2023-03-12T11:22:08.973Z,18.88
2023-03-12T11:24:36.380Z,17.67
2023-03-12T11:27:23.476Z,18.13
2023-03-12T11:29:51.607Z,17.05
2023-03-12T11:32:28.776Z,18.25
2023-03-12T11:34:56.560Z,18.13
2023-03-12T11:37:23.890Z,17.75
2023-03-12T11:39:57.344Z,19.33
2023-03-12T11:42:27.705Z,23.98
2023-03-12T11:45:27.557Z,20.52
2023-03-12T11:47:59.833Z,21.27
2023-03-12T11:50:57.168Z,14.43
2023-03-12T11:53:27.542Z,18.95
2023-03-12T11:55:56.641Z,17.77
2023-03-12T11:58:45.079Z,18.02
2023-03-12T12:01:31.191Z,20.98
2023-03-12T12:04:14.092Z,17.95
2023-03-12T12:07:00.263Z,21.60
2023-03-12T12:09:46.175Z,20.08
2023-03-12T12:12:16.545Z,13.38
2023-03-12T12:14:49.831Z,16.08
2023-03-12T12:17:26.354Z,17.77
2023-03-12T12:20:10.123Z,22.50
2023-03-12T12:22:40.484Z,16.67
2023-03-12T12:25:07.931Z,25.27
2023-03-12T12:27:40.028Z,23.67
2023-03-12T12:30:07.298Z,24.02
2023-03-12T12:32:51.696Z,20.00
2023-03-12T12:35:31.797Z,18.02
2023-03-12T12:38:00.920Z,17.98
2023-03-12T12:40:31.756Z,17.52
2023-03-12T12:43:10.800Z,21.85
2023-03-12T12:45:42.354Z,15.77
2023-03-12T12:48:19.781Z,16.60
2023-03-12T12:50:48.495Z,18.33
2023-03-12T12:53:23.921Z,19.63
2023-03-12T12:56:00.722Z,16.88
2023-03-12T12:58:35.791Z,20.02
2023-03-12T13:01:04.439Z,22.00
2023-03-12T13:03:31.840Z,19.25
2023-03-12T13:06:02.337Z,19.65
2023-03-12T13:08:32.668Z,20.90
2023-03-12T13:11:16.336Z,19.13
2023-03-12T13:13:50.473Z,21.13
2023-03-12T13:16:29.081Z,19.90
2023-03-12T13:18:57.551Z,21.42
2023-03-12T13:21:27.478Z,24.92
2023-03-12T13:24:10.304Z,21.00
2023-03-12T13:26:40.614Z,22.27
2023-03-12T13:29:39.034Z,22.58
2023-03-12T13:32:09.603Z,28.65
2023-03-12T13:34:45.710Z,24.17
2023-03-12T13:37:21.409Z,25.27
2023-03-12T13:39:48.641Z,25.50
2023-03-12T13:42:25.162Z,28.90
2023-03-12T13:44:53.879Z,26.50
2023-03-12T13:47:23.516Z,29.73
2023-03-12T13:49:53.782Z,27.75
2023-03-12T13:52:28.929Z,26.65
2023-03-12T13:55:08.568Z,28.63
2023-03-12T13:57:41.252Z,31.90
2023-03-12T14:00:32.251Z,33.40
2023-03-12T14:03:05.319Z,32.15
2023-03-12T14:05:35.071Z,32.78
2023-03-12T14:08:18.602Z,29.55
2023-03-12T14:13:25.416Z,35.72
2023-03-12T14:16:02.017Z,35.22
2023-03-12T14:18:30.520Z,31.70
2023-03-12T14:20:59.549Z,43.22
2023-03-12T14:23:29.476Z,41.75
2023-03-12T14:25:59.592Z,38.75
2023-03-12T14:28:27.783Z,47.45
2023-03-12T14:31:02.882Z,51.05
2023-03-12T14:33:36.636Z,56.45
2023-03-12T14:36:09.696Z,56.70
2023-03-12T14:41:07.090Z,59.10
2023-03-12T14:43:35.478Z,63.67
2023-03-12T14:46:05.081Z,70.50
2023-03-12T14:48:34.084Z,68.25
2023-03-12T14:51:02.252Z,54.30
2023-03-12T14:53:31.359Z,61.25
2023-03-12T14:56:30.263Z,62.40
2023-03-12T14:58:58.345Z,59.85
2023-03-12T15:01:27.724Z,66.93
2023-03-12T15:03:58.155Z,69.45
2023-03-12T15:06:37.379Z,66.85
2023-03-12T15:09:06.499Z,63.85
2023-03-12T15:11:38.010Z,61.38
2023-03-12T15:14:09.997Z,64.32
2023-03-12T15:16:37.475Z,67.40
2023-03-12T15:19:05.167Z,66.60
2023-03-12T15:21:33.782Z,57.08
2023-03-12T15:24:01.216Z,64.85
2023-03-12T15:26:33.261Z,66.55
2023-03-12T15:29:03.201Z,67.63
2023-03-12T15:31:47.059Z,68.20
2023-03-12T15:34:16.431Z,63.95
2023-03-12T15:36:48.097Z,57.55
2023-03-12T15:39:26.686Z,66.30
2023-03-12T15:41:54.582Z,63.55
2023-03-12T15:44:26.416Z,66.05
2023-03-12T15:46:55.333Z,64.43
2023-03-12T15:49:33.460Z,61.53
2023-03-12T15:52:03.186Z,67.28
2023-03-12T15:54:30.974Z,70.13
2023-03-12T15:57:18.999Z,67.78
2023-03-12T15:59:50.683Z,70.60
2023-03-12T16:02:35.444Z,71.57
2023-03-12T16:05:02.732Z,71.32
2023-03-12T16:07:29.935Z,76.43
2023-03-12T16:09:57.254Z,66.93
2023-03-12T16:12:24.485Z,65.80
2023-03-12T16:14:51.808Z,61.40
2023-03-12T16:17:19.646Z,64.18
2023-03-12T16:19:46.892Z,57.00
2023-03-12T16:22:14.110Z,58.55
2023-03-12T16:24:41.313Z,61.13
2023-03-12T16:27:15.856Z,62.67
2023-03-12T16:29:45.162Z,58.40
2023-03-12T16:32:13.534Z,58.15
2023-03-12T16:34:42.506Z,52.00
2023-03-12T16:37:13.433Z,62.15
2023-03-12T16:39:40.697Z,53.75
2023-03-12T16:42:13.931Z,68.88
2023-03-12T16:44:41.479Z,61.28
2023-03-12T16:47:13.495Z,53.58
2023-03-12T16:49:41.268Z,57.60
2023-03-12T16:52:22.272Z,63.50
2023-03-12T16:54:49.836Z,61.05
2023-03-12T16:57:23.911Z,53.17
2023-03-12T16:59:51.252Z,55.50
2023-03-12T17:02:20.535Z,59.88
2023-03-12T17:04:48.854Z,49.95
2023-03-12T17:07:16.285Z,53.70
2023-03-12T17:09:43.506Z,49.78
2023-03-12T17:12:16.681Z,44.63
2023-03-12T17:14:43.969Z,43.92
2023-03-12T17:17:11.100Z,42.95
2023-03-12T17:19:38.286Z,40.20
2023-03-12T17:22:05.741Z,33.13
2023-03-12T17:24:33.008Z,36.60
2023-03-12T17:27:00.725Z,35.08
2023-03-12T17:29:27.982Z,28.60
2023-03-12T17:31:55.234Z,29.48
2023-03-12T17:34:22.395Z,29.25
2023-03-12T17:36:49.649Z,23.10
2023-03-12T17:39:16.864Z,30.85
2023-03-12T17:41:44.095Z,28.55
2023-03-12T17:44:13.715Z,21.67
2023-03-12T17:46:56.665Z,29.17
2023-03-12T17:49:26.393Z,27.27
2023-03-12T17:51:53.792Z,31.35
2023-03-12T17:54:22.232Z,34.95
2023-03-12T17:56:49.550Z,25.42
2023-03-12T17:59:16.831Z,30.60
2023-03-12T18:01:44.080Z,30.75
2023-03-12T18:04:11.494Z,27.88
2023-03-12T18:06:38.793Z,28.83
2023-03-12T18:09:06.113Z,30.55
2023-03-12T18:11:33.331Z,29.15
2023-03-12T18:14:00.560Z,31.13
2023-03-12T18:16:27.908Z,29.42
2023-03-12T18:18:55.139Z,29.20
2023-03-12T18:21:22.385Z,28.48
2023-03-12T18:23:49.654Z,30.60
2023-03-12T18:26:16.993Z,22.65
2023-03-12T18:28:44.340Z,35.10
2023-03-12T18:31:12.538Z,23.77
2023-03-12T18:33:41.817Z,30.38
2023-03-12T18:36:09.435Z,25.67
2023-03-12T18:38:36.721Z,30.52
2023-03-12T18:41:08.704Z,26.90
2023-03-12T18:43:36.392Z,27.90
2023-03-12T18:46:03.751Z,29.33
2023-03-12T18:48:31.019Z,26.70
2023-03-12T18:50:58.510Z,37.25
2023-03-12T18:53:25.759Z,27.70
2023-03-12T18:55:53.216Z,31.95
2023-03-12T18:58:20.755Z,36.78
2023-03-12T19:00:48.251Z,28.15
2023-03-12T19:03:15.570Z,28.85
2023-03-12T19:05:42.857Z,22.98
2023-03-12T19:08:15.033Z,37.60
2023-03-12T19:10:43.121Z,32.87
2023-03-12T19:13:10.730Z,32.00
2023-03-12T19:15:38.996Z,30.30
2023-03-12T19:18:06.299Z,27.10
2023-03-12T19:20:35.837Z,30.05
2023-03-12T19:23:03.066Z,24.45
2023-03-12T19:25:30.296Z,28.42
2023-03-12T19:27:57.638Z,21.88
2023-03-12T19:30:30.452Z,27.15
2023-03-12T19:32:57.868Z,23.05
2023-03-12T19:35:28.055Z,31.50
2023-03-12T19:37:56.018Z,35.38
2023-03-12T19:40:23.236Z,31.35
2023-03-12T19:42:50.544Z,44.28
2023-03-12T19:45:19.174Z,35.03
2023-03-12T19:47:47.158Z,30.85
2023-03-12T19:50:14.779Z,31.98
2023-03-12T19:52:41.952Z,35.53
2023-03-12T19:55:11.094Z,36.13
2023-03-12T19:57:38.647Z,32.15
2023-03-12T20:00:09.780Z,32.95
2023-03-12T20:02:37.843Z,27.38
2023-03-12T20:05:06.181Z,34.10
2023-03-12T20:07:33.660Z,34.67
2023-03-12T20:10:00.926Z,34.95
2023-03-12T20:12:28.292Z,35.88
2023-03-12T20:14:55.511Z,33.97
2023-03-12T20:17:22.749Z,35.58
2023-03-12T20:19:49.966Z,31.38
2023-03-12T20:22:17.182Z,33.38
2023-03-12T20:24:44.425Z,29.20
2023-03-12T20:27:11.650Z,33.67
2023-03-12T20:29:38.937Z,29.02
2023-03-12T20:32:06.264Z,32.33
2023-03-12T20:34:33.484Z,30.63
2023-03-12T20:37:00.747Z,25.30
2023-03-12T20:39:27.931Z,33.92
2023-03-12T20:41:55.128Z,29.35
2023-03-12T20:44:22.329Z,28.33
2023-03-12T20:46:49.614Z,23.10
2023-03-12T20:49:16.944Z,31.38
2023-03-12T20:51:46.507Z,27.75
2023-03-12T20:54:13.810Z,33.28
2023-03-12T20:56:43.694Z,31.83
2023-03-12T20:59:14.102Z,32.50
2023-03-12T21:01:44.298Z,27.80
2023-03-12T21:04:11.820Z,33.78
2023-03-12T21:06:39.126Z,25.95
2023-03-12T21:09:07.304Z,23.95
2023-03-12T21:11:34.601Z,23.48
2023-03-12T21:14:01.909Z,26.63
2023-03-12T21:16:29.236Z,21.42
2023-03-12T21:18:59.016Z,25.25
2023-03-12T21:21:26.337Z,22.85
2023-03-12T21:23:53.578Z,24.50
2023-03-12T21:26:24.616Z,23.65
2023-03-12T21:28:52.052Z,21.42
2023-03-12T21:31:19.456Z,21.45
2023-03-12T21:33:46.829Z,31.02
2023-03-12T21:36:14.838Z,22.27
2023-03-12T21:38:45.380Z,26.20
2023-03-12T21:41:14.186Z,17.48
2023-03-12T21:43:41.657Z,26.20
2023-03-12T21:46:27.961Z,25.00
2023-03-12T21:48:55.402Z,25.40
2023-03-12T21:51:22.862Z,23.35
2023-03-12T21:53:54.431Z,20.65
2023-03-12T21:56:24.241Z,24.52
2023-03-12T21:58:51.618Z,24.90
2023-03-12T22:01:19.228Z,17.85
2023-03-12T22:03:47.278Z,24.77
2023-03-12T22:06:15.463Z,24.42
2023-03-12T22:08:43.598Z,23.38
2023-03-12T22:11:11.396Z,26.10
2023-03-12T22:13:38.779Z,22.48
2023-03-12T22:16:08.212Z,28.48
2023-03-12T22:18:39.013Z,23.17
2023-03-12T22:21:07.746Z,21.73
2023-03-12T22:23:38.366Z,26.80
2023-03-12T22:26:06.343Z,27.58
2023-03-12T22:28:33.826Z,20.15
2023-03-12T22:31:02.388Z,25.90
2023-03-12T22:33:29.883Z,21.15
2023-03-12T22:35:57.147Z,23.52
2023-03-12T22:38:24.978Z,23.63
2023-03-12T22:40:54.959Z,20.63
2023-03-12T22:43:22.782Z,20.95
2023-03-12T22:45:53.248Z,22.50
2023-03-12T22:48:20.563Z,22.88
2023-03-12T22:50:54.167Z,16.95
2023-03-12T22:53:30.441Z,21.08
2023-03-12T22:56:07.722Z,22.50
2023-03-12T22:58:35.084Z,17.45
2023-03-12T23:01:03.739Z,26.77
2023-03-12T23:03:31.533Z,35.15
2023-03-12T23:05:59.153Z,21.58
2023-03-12T23:08:26.784Z,19.30
2023-03-12T23:11:01.833Z,30.38
2023-03-12T23:13:29.983Z,17.90
2023-03-12T23:16:02.078Z,20.73
2023-03-12T23:18:29.723Z,17.17
2023-03-12T23:21:04.889Z,15.77
2023-03-12T23:23:32.541Z,27.05
2023-03-12T23:26:01.072Z,14.00
2023-03-12T23:28:29.063Z,25.50
2023-03-12T23:31:00.798Z,19.88
2023-03-12T23:33:29.163Z,25.02
2023-03-12T23:35:57.657Z,24.42
2023-03-12T23:38:25.636Z,20.55
2023-03-12T23:40:52.997Z,19.45
2023-03-12T23:43:20.716Z,24.35
2023-03-12T23:45:47.957Z,19.85
2023-03-12T23:48:15.191Z,19.15
2023-03-12T23:50:42.545Z,20.63
2023-03-12T23:53:09.799Z,19.02
2023-03-12T23:55:37.026Z,23.98
2023-03-12T23:58:04.288Z,24.83
